Terminal Aerodrome Forecast
Issued by NWS

Home | Current Version | Previous Version | Text Only | Print | Product List | Glossary Off
Versions: 1 2 3 4 5 6 7 8 9 10 11 12 13 14 15 16

625
FTUS43 KIWX 222335
TAFSBN
TAF
KSBN 222335Z 2300/2324 12005KT P6SM SCT250
     FM231300 13010KT P6SM SCT150 BKN250
     FM232000 15012KT P6SM OVC080=

USA.gov is the U.S. government's official web portal to all federal, state and local government web resources and services.